createdAt,value
2022-08-23T00:01:40.240Z,21.58
2022-08-23T00:05:42.278Z,21.51
2022-08-23T00:09:44.476Z,21.45
2022-08-23T00:13:47.772Z,21.41
2022-08-23T00:17:50.627Z,21.35
2022-08-23T00:21:54.758Z,21.30
2022-08-23T00:25:56.792Z,21.21
2022-08-23T00:29:59.332Z,21.17
2022-08-23T00:34:01.372Z,21.10
2022-08-23T00:38:31.626Z,21.02
2022-08-23T00:43:08.758Z,20.92
2022-08-23T00:47:33.101Z,20.84
2022-08-23T00:52:02.298Z,20.75
2022-08-23T00:56:08.960Z,20.66
2022-08-23T01:00:12.107Z,20.53
2022-08-23T01:04:14.773Z,20.42
2022-08-23T01:08:16.874Z,20.25
2022-08-23T01:12:32.340Z,20.08
2022-08-23T01:16:45.531Z,20.05
2022-08-23T01:21:05.249Z,19.97
2022-08-23T01:25:16.854Z,19.92
2022-08-23T01:29:19.606Z,19.90
2022-08-23T01:33:21.871Z,19.92
2022-08-23T01:37:24.210Z,19.89
2022-08-23T01:41:26.468Z,19.88
2022-08-23T01:45:30.233Z,19.88
2022-08-23T01:49:34.538Z,19.88
2022-08-23T01:53:37.081Z,19.85
2022-08-23T01:57:42.809Z,19.81
2022-08-23T02:01:48.848Z,19.77
2022-08-23T02:09:59.126Z,19.71
2022-08-23T02:14:04.242Z,19.71
2022-08-23T02:18:14.188Z,19.68
2022-08-23T02:22:18.768Z,19.63
2022-08-23T02:26:20.990Z,19.63
2022-08-23T02:30:33.920Z,19.56
2022-08-23T02:34:37.261Z,19.53
2022-08-23T02:38:40.525Z,19.49
2022-08-23T02:42:43.118Z,19.47
2022-08-23T02:46:46.990Z,19.46
2022-08-23T02:50:50.480Z,19.41
2022-08-23T02:54:53.864Z,19.37
2022-08-23T02:59:00.574Z,19.28
2022-08-23T03:03:03.239Z,19.07
2022-08-23T03:07:05.577Z,18.86
2022-08-23T03:11:26.582Z,18.77
2022-08-23T03:15:30.074Z,18.50
2022-08-23T03:19:32.324Z,18.33
2022-08-23T03:23:35.029Z,18.26
2022-08-23T03:27:38.365Z,18.22
2022-08-23T03:31:46.860Z,18.21
2022-08-23T03:35:49.845Z,18.11
2022-08-23T03:39:52.858Z,18.05
2022-08-23T03:43:55.254Z,18.01
2022-08-23T03:47:58.053Z,17.99
2022-08-23T03:52:01.348Z,17.84
2022-08-23T03:56:06.640Z,17.73
2022-08-23T04:00:11.990Z,17.69
2022-08-23T04:04:19.560Z,17.62
2022-08-23T04:08:42.968Z,17.58
2022-08-23T04:12:46.005Z,17.64
2022-08-23T04:16:51.039Z,17.68
2022-08-23T04:20:55.870Z,17.70
2022-08-23T04:24:58.137Z,17.61
2022-08-23T04:29:00.853Z,17.64
2022-08-23T04:33:03.712Z,17.64
2022-08-23T04:37:13.679Z,17.66
2022-08-23T04:41:34.902Z,17.68
2022-08-23T04:45:41.086Z,17.59
2022-08-23T04:49:49.576Z,17.66
2022-08-23T04:53:51.675Z,17.74
2022-08-23T04:58:14.338Z,17.87
2022-08-23T05:02:20.648Z,17.81
2022-08-23T05:06:24.356Z,17.83
2022-08-23T05:10:26.752Z,17.90
2022-08-23T05:14:29.458Z,17.99
2022-08-23T05:18:31.886Z,18.06
2022-08-23T05:22:35.933Z,18.10
2022-08-23T05:26:58.837Z,18.31
2022-08-23T05:31:11.767Z,18.52
2022-08-23T05:35:21.556Z,18.93
2022-08-23T05:39:25.754Z,20.40
2022-08-23T05:43:36.017Z,20.52
2022-08-23T05:47:38.152Z,20.97
2022-08-23T05:51:54.120Z,24.44
2022-08-23T05:56:09.614Z,26.90
2022-08-23T06:00:14.695Z,28.90
2022-08-23T06:04:25.870Z,30.41
2022-08-23T06:08:28.614Z,31.37
2022-08-23T06:12:32.160Z,32.25
2022-08-23T06:16:40.723Z,32.75
2022-08-23T06:20:43.551Z,33.43
2022-08-23T06:24:50.759Z,34.15
2022-08-23T06:28:56.270Z,34.64
2022-08-23T06:32:59.212Z,35.02
2022-08-23T06:37:10.190Z,35.38
2022-08-23T06:41:30.890Z,35.94
2022-08-23T06:46:05.495Z,36.37
2022-08-23T06:50:09.367Z,36.39
2022-08-23T06:54:32.402Z,36.56
2022-08-23T06:59:07.983Z,36.89
2022-08-23T07:03:28.676Z,35.43
2022-08-23T07:07:50.950Z,31.26
2022-08-23T07:11:54.175Z,28.79
2022-08-23T07:16:00.423Z,27.35
2022-08-23T07:20:03.632Z,26.50
2022-08-23T07:24:08.533Z,25.92
2022-08-23T07:28:12.278Z,25.56
2022-08-23T07:32:18.723Z,25.40
2022-08-23T07:36:23.100Z,25.34
2022-08-23T07:40:27.640Z,25.31
2022-08-23T07:44:34.279Z,25.20
2022-08-23T07:48:53.467Z,25.17
2022-08-23T07:53:03.069Z,25.18
2022-08-23T07:57:05.699Z,25.20
2022-08-23T08:01:37.568Z,25.14
2022-08-23T08:05:40.891Z,25.19
2022-08-23T08:09:43.262Z,25.19
2022-08-23T08:13:47.271Z,25.18
2022-08-23T08:17:50.806Z,25.23
2022-08-23T08:21:53.177Z,25.38
2022-08-23T08:26:13.708Z,25.49
2022-08-23T08:30:26.687Z,25.56
2022-08-23T08:34:28.957Z,25.67
2022-08-23T08:38:31.672Z,25.75
2022-08-23T08:43:06.391Z,25.86
2022-08-23T08:47:16.012Z,25.96
2022-08-23T08:51:42.993Z,26.02
2022-08-23T08:55:49.296Z,26.09
2022-08-23T08:59:58.582Z,26.19
2022-08-23T09:04:02.833Z,26.29
2022-08-23T09:08:43.481Z,26.36
2022-08-23T09:13:00.982Z,26.44
2022-08-23T09:17:18.358Z,26.51
2022-08-23T09:21:21.690Z,26.58
2022-08-23T09:25:24.760Z,26.64
2022-08-23T09:29:37.064Z,26.79
2022-08-23T09:33:43.261Z,26.80
2022-08-23T09:38:20.377Z,26.91
2022-08-23T09:42:33.613Z,26.95
2022-08-23T09:46:41.755Z,27.08
2022-08-23T09:50:54.679Z,27.19
2022-08-23T09:55:02.874Z,27.25
2022-08-23T09:59:39.256Z,27.33
2022-08-23T10:04:05.703Z,27.33
2022-08-23T10:08:10.636Z,27.43
2022-08-23T10:12:16.346Z,27.61
2022-08-23T10:17:01.581Z,27.75
2022-08-23T10:21:16.497Z,27.91
2022-08-23T10:25:36.579Z,28.05
2022-08-23T10:29:48.545Z,28.09
2022-08-23T10:34:15.740Z,28.17
2022-08-23T10:38:47.096Z,28.23
2022-08-23T10:43:08.976Z,28.32
2022-08-23T10:47:37.509Z,28.43
2022-08-23T10:51:47.427Z,28.48
2022-08-23T10:56:06.218Z,28.53
2022-08-23T11:00:21.369Z,28.63
2022-08-23T11:04:44.809Z,28.74
2022-08-23T11:09:03.491Z,28.88
2022-08-23T11:13:21.796Z,28.94
2022-08-23T11:17:29.715Z,29.05
2022-08-23T11:21:38.580Z,29.21
2022-08-23T11:25:44.847Z,29.27
2022-08-23T11:29:47.182Z,29.31
2022-08-23T11:34:23.128Z,29.31
2022-08-23T11:38:48.227Z,29.40
2022-08-23T11:42:53.173Z,29.49
2022-08-23T11:46:59.397Z,29.63
2022-08-23T11:51:18.367Z,29.87
2022-08-23T11:55:35.146Z,30.16
2022-08-23T12:00:06.366Z,30.42
2022-08-23T12:04:55.465Z,30.66
2022-08-23T12:09:25.484Z,30.95
2022-08-23T12:13:52.554Z,31.20
2022-08-23T12:18:06.156Z,31.44
2022-08-23T12:22:15.553Z,31.85
2022-08-23T12:26:28.853Z,32.17
2022-08-23T12:30:44.269Z,32.28
2022-08-23T12:34:58.317Z,32.26
2022-08-23T12:39:18.829Z,32.04
2022-08-23T12:43:24.331Z,31.87
2022-08-23T12:47:26.733Z,31.67
2022-08-23T12:51:29.355Z,31.58
2022-08-23T12:55:35.242Z,31.43
2022-08-23T12:59:50.677Z,31.41
2022-08-23T13:04:08.304Z,31.43
2022-08-23T13:08:19.341Z,31.45
2022-08-23T13:12:29.477Z,31.45
2022-08-23T13:16:40.985Z,31.39
2022-08-23T13:20:43.123Z,31.37
2022-08-23T13:25:29.209Z,31.28
2022-08-23T13:29:33.599Z,30.91
2022-08-23T13:33:36.365Z,30.68
2022-08-23T13:37:46.448Z,30.81
2022-08-23T13:41:48.544Z,31.08
2022-08-23T13:45:54.732Z,31.35
2022-08-23T13:49:58.836Z,31.53
2022-08-23T13:54:03.660Z,31.62
2022-08-23T13:58:10.388Z,31.67
2022-08-23T14:02:15.407Z,31.72
2022-08-23T14:06:17.562Z,31.83
2022-08-23T14:10:22.337Z,31.80
2022-08-23T14:14:25.342Z,31.50
2022-08-23T14:18:27.526Z,31.35
2022-08-23T14:22:29.568Z,31.55
2022-08-23T14:26:31.788Z,31.70
2022-08-23T14:30:38.297Z,31.83
2022-08-23T14:34:40.640Z,31.76
2022-08-23T14:38:42.681Z,31.68
2022-08-23T14:42:45.811Z,31.57
2022-08-23T14:46:47.955Z,31.35
2022-08-23T14:50:50.345Z,31.20
2022-08-23T14:54:52.559Z,31.11
2022-08-23T14:58:54.734Z,31.27
2022-08-23T15:02:57.062Z,31.41
2022-08-23T15:07:18.333Z,31.33
2022-08-23T15:15:43.221Z,31.03
2022-08-23T15:19:45.363Z,30.89
2022-08-23T15:23:47.980Z,30.92
2022-08-23T15:27:51.120Z,31.12
2022-08-23T15:31:54.421Z,31.32
2022-08-23T15:35:58.509Z,31.47
2022-08-23T15:40:01.092Z,31.58
2022-08-23T15:44:03.717Z,31.58
2022-08-23T15:48:29.631Z,31.56
2022-08-23T15:52:31.664Z,31.36
2022-08-23T15:56:37.467Z,31.08
2022-08-23T16:00:39.526Z,30.90
2022-08-23T16:04:42.111Z,30.71
2022-08-23T16:08:49.509Z,30.58
2022-08-23T16:12:51.532Z,30.37
2022-08-23T16:16:56.436Z,30.16
2022-08-23T16:20:58.499Z,30.02
2022-08-23T16:25:00.569Z,30.02
2022-08-23T16:29:09.007Z,30.07
2022-08-23T16:33:11.049Z,30.11
2022-08-23T16:37:13.068Z,30.06
2022-08-23T16:41:15.519Z,30.00
2022-08-23T16:45:17.809Z,29.96
2022-08-23T16:49:27.917Z,29.92
2022-08-23T16:53:30.013Z,29.89
2022-08-23T16:57:32.098Z,29.85
2022-08-23T17:01:52.986Z,29.80
2022-08-23T17:05:55.539Z,29.71
2022-08-23T17:09:57.601Z,29.64
2022-08-23T17:13:59.657Z,29.53
2022-08-23T17:18:07.636Z,29.44
2022-08-23T17:22:10.206Z,29.36
2022-08-23T17:26:13.011Z,29.25
2022-08-23T17:30:18.504Z,29.13
2022-08-23T17:34:20.524Z,29.04
2022-08-23T17:38:22.636Z,28.92
2022-08-23T17:42:24.652Z,28.81
2022-08-23T17:46:27.197Z,28.70
2022-08-23T17:50:29.246Z,28.57
2022-08-23T17:54:31.346Z,28.42
2022-08-23T17:58:33.435Z,28.23
2022-08-23T18:02:35.541Z,27.95
2022-08-23T18:06:37.668Z,27.76
2022-08-23T18:10:40.012Z,27.58
2022-08-23T18:14:42.107Z,27.35
2022-08-23T18:18:44.253Z,27.15
2022-08-23T18:22:46.298Z,26.90
2022-08-23T18:27:07.568Z,26.60
2022-08-23T18:31:15.088Z,26.36
2022-08-23T18:35:17.605Z,26.13
2022-08-23T18:39:31.378Z,25.94
2022-08-23T18:43:37.669Z,25.64
2022-08-23T18:47:40.400Z,25.36
2022-08-23T18:51:42.602Z,25.05
2022-08-23T18:55:45.687Z,24.83
2022-08-23T18:59:47.708Z,24.67
2022-08-23T19:03:49.757Z,24.42
2022-08-23T19:07:51.892Z,24.21
2022-08-23T19:11:53.986Z,24.01
2022-08-23T19:15:56.083Z,23.78
2022-08-23T19:19:58.274Z,23.61
2022-08-23T19:24:00.367Z,23.52
2022-08-23T19:28:02.788Z,23.43
2022-08-23T19:32:05.339Z,23.46
2022-08-23T19:36:12.859Z,23.41
2022-08-23T19:40:26.192Z,23.32
2022-08-23T19:44:29.019Z,23.14
2022-08-23T19:48:31.076Z,22.97
2022-08-23T19:52:33.623Z,22.85
2022-08-23T19:56:42.327Z,22.78
2022-08-23T20:00:45.375Z,22.69
2022-08-23T20:04:47.534Z,22.46
2022-08-23T20:08:49.937Z,22.33
2022-08-23T20:12:52.035Z,22.28
2022-08-23T20:16:54.668Z,22.28
2022-08-23T20:20:57.689Z,22.09
2022-08-23T20:25:00.020Z,21.86
2022-08-23T20:29:04.160Z,21.79
2022-08-23T20:33:06.269Z,21.76
2022-08-23T20:37:08.309Z,21.67
2022-08-23T20:41:10.516Z,21.52
2022-08-23T20:45:19.339Z,21.26
2022-08-23T20:49:22.127Z,21.13
2022-08-23T20:53:24.170Z,21.00
2022-08-23T20:57:26.188Z,20.93
2022-08-23T21:01:34.280Z,20.94
2022-08-23T21:05:36.353Z,20.90
2022-08-23T21:09:39.268Z,20.78
2022-08-23T21:13:43.912Z,20.67
2022-08-23T21:17:47.014Z,20.63
2022-08-23T21:21:50.413Z,20.54
2022-08-23T21:25:57.589Z,20.50
2022-08-23T21:29:59.507Z,20.45
2022-08-23T21:34:01.939Z,20.34
2022-08-23T21:38:04.024Z,20.10
2022-08-23T21:42:14.916Z,20.09
2022-08-23T21:46:17.650Z,20.19
2022-08-23T21:50:19.867Z,20.27
2022-08-23T21:54:26.958Z,20.31
2022-08-23T21:58:29.533Z,20.25
2022-08-23T22:02:31.616Z,19.97
2022-08-23T22:06:35.000Z,19.69
2022-08-23T22:10:38.801Z,19.76
2022-08-23T22:14:46.871Z,19.85
2022-08-23T22:18:49.079Z,19.89
2022-08-23T22:22:51.148Z,19.85
2022-08-23T22:26:54.537Z,19.75
2022-08-23T22:30:58.249Z,19.62
2022-08-23T22:35:00.312Z,19.44
2022-08-23T22:39:03.663Z,19.33
2022-08-23T22:43:05.745Z,19.33
2022-08-23T22:47:07.889Z,19.36
2022-08-23T22:51:16.062Z,19.36
2022-08-23T22:55:18.161Z,19.35
2022-08-23T22:59:22.410Z,19.42
2022-08-23T23:03:29.566Z,19.39
2022-08-23T23:07:50.033Z,19.49
2022-08-23T23:11:52.691Z,19.63
2022-08-23T23:15:55.433Z,19.64
2022-08-23T23:20:16.219Z,19.57
2022-08-23T23:24:26.497Z,19.63
2022-08-23T23:28:28.995Z,19.69
2022-08-23T23:32:31.025Z,19.66
2022-08-23T23:36:33.665Z,19.63
2022-08-23T23:40:37.145Z,19.59
2022-08-23T23:44:39.217Z,19.54
2022-08-23T23:48:43.430Z,19.52
2022-08-23T23:52:45.975Z,19.50
2022-08-23T23:56:48.082Z,19.56
